<?xml version="1.0" encoding="utf-8"?>
<gpx xmlns:xsi="http://www.w3.org/2001/XMLSchema-instance" xmlns:xsd="http://www.w3.org/2001/XMLSchema" version="1.1" creator="Shapelink.com" xmlns="http://www.topografix.com/GPX/1/1" xmlns:gpxtpx="http://www.garmin.com/xmlschemas/TrackPointExtension/v1">
  <metadata>
    <name>Gåing 0.92 km, 2012-09-03</name>
    <desc></desc>
    <author><name>Mikael Blom</name></author> 
    <time>2012-09-03T20:05:18Z</time>
  </metadata>
  <trk>
    <name>Gåing 0.92 km, 2012-09-03</name>
    <trkseg>
      <trkpt lat="59.9554076" lon="17.7150147">
        <ele>51.5679</ele>
        <time>2012-09-03T20:05:18Z</time>
      </trkpt>
      <trkpt lat="59.9553978" lon="17.7149981">
        <ele>50.6066</ele>
        <time>2012-09-03T20:05:19Z</time>
      </trkpt>
      <trkpt lat="59.9553538" lon="17.7148763">
        <ele>48.684</ele>
        <time>2012-09-03T20:05:24Z</time>
      </trkpt>
      <trkpt lat="59.955336" lon="17.7147991">
        <ele>47.7225</ele>
        <time>2012-09-03T20:05:28Z</time>
      </trkpt>
      <trkpt lat="59.9553215" lon="17.714769">
        <ele>47.2418</ele>
        <time>2012-09-03T20:05:30Z</time>
      </trkpt>
      <trkpt lat="59.955291" lon="17.7145678">
        <ele>47.2418</ele>
        <time>2012-09-03T20:05:36Z</time>
      </trkpt>
      <trkpt lat="59.955253" lon="17.7144272">
        <ele>48.684</ele>
        <time>2012-09-03T20:05:42Z</time>
      </trkpt>
      <trkpt lat="59.9552448" lon="17.7142571">
        <ele>47.7225</ele>
        <time>2012-09-03T20:05:46Z</time>
      </trkpt>
      <trkpt lat="59.9551859" lon="17.7141428">
        <ele>45.7999</ele>
        <time>2012-09-03T20:05:52Z</time>
      </trkpt>
      <trkpt lat="59.9551569" lon="17.7141346">
        <ele>46.2806</ele>
        <time>2012-09-03T20:05:54Z</time>
      </trkpt>
      <trkpt lat="59.9551282" lon="17.7142666">
        <ele>43.3966</ele>
        <time>2012-09-03T20:06:00Z</time>
      </trkpt>
      <trkpt lat="59.9551084" lon="17.7143379">
        <ele>43.8773</ele>
        <time>2012-09-03T20:06:04Z</time>
      </trkpt>
      <trkpt lat="59.9550378" lon="17.7144354">
        <ele>43.3966</ele>
        <time>2012-09-03T20:06:09Z</time>
      </trkpt>
      <trkpt lat="59.9550242" lon="17.7144703">
        <ele>43.3966</ele>
        <time>2012-09-03T20:06:10Z</time>
      </trkpt>
      <trkpt lat="59.9549506" lon="17.7146117">
        <ele>41.9547</ele>
        <time>2012-09-03T20:06:16Z</time>
      </trkpt>
      <trkpt lat="59.9549279" lon="17.7146514">
        <ele>41.474</ele>
        <time>2012-09-03T20:06:18Z</time>
      </trkpt>
      <trkpt lat="59.9549137" lon="17.7146949">
        <ele>40.9934</ele>
        <time>2012-09-03T20:06:20Z</time>
      </trkpt>
      <trkpt lat="59.9548674" lon="17.7147592">
        <ele>39.5513</ele>
        <time>2012-09-03T20:06:24Z</time>
      </trkpt>
      <trkpt lat="59.9547818" lon="17.7147932">
        <ele>37.6287</ele>
        <time>2012-09-03T20:06:30Z</time>
      </trkpt>
      <trkpt lat="59.95473" lon="17.7147899">
        <ele>36.1868</ele>
        <time>2012-09-03T20:06:34Z</time>
      </trkpt>
      <trkpt lat="59.9546362" lon="17.7148234">
        <ele>35.7061</ele>
        <time>2012-09-03T20:06:41Z</time>
      </trkpt>
      <trkpt lat="59.9546049" lon="17.7148395">
        <ele>35.7061</ele>
        <time>2012-09-03T20:06:43Z</time>
      </trkpt>
      <trkpt lat="59.9545471" lon="17.7148685">
        <ele>36.6675</ele>
        <time>2012-09-03T20:06:48Z</time>
      </trkpt>
      <trkpt lat="59.9545331" lon="17.7148686">
        <ele>36.6675</ele>
        <time>2012-09-03T20:06:49Z</time>
      </trkpt>
      <trkpt lat="59.9544943" lon="17.7148557">
        <ele>37.6287</ele>
        <time>2012-09-03T20:06:52Z</time>
      </trkpt>
      <trkpt lat="59.9544501" lon="17.7148432">
        <ele>39.0707</ele>
        <time>2012-09-03T20:06:56Z</time>
      </trkpt>
      <trkpt lat="59.9543688" lon="17.714841">
        <ele>40.9934</ele>
        <time>2012-09-03T20:07:03Z</time>
      </trkpt>
      <trkpt lat="59.9542981" lon="17.7148608">
        <ele>42.4354</ele>
        <time>2012-09-03T20:07:08Z</time>
      </trkpt>
      <trkpt lat="59.9542242" lon="17.7148759">
        <ele>41.9547</ele>
        <time>2012-09-03T20:07:13Z</time>
      </trkpt>
      <trkpt lat="59.9541269" lon="17.7149576">
        <ele>41.9547</ele>
        <time>2012-09-03T20:07:19Z</time>
      </trkpt>
      <trkpt lat="59.9541124" lon="17.7149602">
        <ele>41.9547</ele>
        <time>2012-09-03T20:07:20Z</time>
      </trkpt>
      <trkpt lat="59.9540146" lon="17.71498">
        <ele>43.8773</ele>
        <time>2012-09-03T20:07:27Z</time>
      </trkpt>
      <trkpt lat="59.95395" lon="17.7150088">
        <ele>43.8773</ele>
        <time>2012-09-03T20:07:32Z</time>
      </trkpt>
      <trkpt lat="59.953936" lon="17.71501">
        <ele>42.916</ele>
        <time>2012-09-03T20:07:33Z</time>
      </trkpt>
      <trkpt lat="59.953869" lon="17.7150368">
        <ele>41.474</ele>
        <time>2012-09-03T20:07:37Z</time>
      </trkpt>
      <trkpt lat="59.9537901" lon="17.7150364">
        <ele>39.0707</ele>
        <time>2012-09-03T20:07:43Z</time>
      </trkpt>
      <trkpt lat="59.9537178" lon="17.7150493">
        <ele>35.2255</ele>
        <time>2012-09-03T20:07:49Z</time>
      </trkpt>
      <trkpt lat="59.9536996" lon="17.7150524">
        <ele>34.2642</ele>
        <time>2012-09-03T20:07:51Z</time>
      </trkpt>
      <trkpt lat="59.953653" lon="17.7150952">
        <ele>33.3029</ele>
        <time>2012-09-03T20:07:55Z</time>
      </trkpt>
      <trkpt lat="59.9535918" lon="17.7151576">
        <ele>29.9381</ele>
        <time>2012-09-03T20:08:01Z</time>
      </trkpt>
      <trkpt lat="59.9535071" lon="17.7152794">
        <ele>25.6123</ele>
        <time>2012-09-03T20:08:10Z</time>
      </trkpt>
      <trkpt lat="59.9534649" lon="17.715388">
        <ele>26.0929</ele>
        <time>2012-09-03T20:08:15Z</time>
      </trkpt>
      <trkpt lat="59.9533926" lon="17.7154858">
        <ele>25.6123</ele>
        <time>2012-09-03T20:08:21Z</time>
      </trkpt>
      <trkpt lat="59.9533675" lon="17.7155238">
        <ele>26.0929</ele>
        <time>2012-09-03T20:08:23Z</time>
      </trkpt>
      <trkpt lat="59.9532857" lon="17.7156357">
        <ele>26.0929</ele>
        <time>2012-09-03T20:08:30Z</time>
      </trkpt>
      <trkpt lat="59.9532758" lon="17.7156433">
        <ele>26.5736</ele>
        <time>2012-09-03T20:08:31Z</time>
      </trkpt>
      <trkpt lat="59.9532387" lon="17.7157109">
        <ele>25.6123</ele>
        <time>2012-09-03T20:08:35Z</time>
      </trkpt>
      <trkpt lat="59.9531959" lon="17.7157826">
        <ele>26.5736</ele>
        <time>2012-09-03T20:08:38Z</time>
      </trkpt>
      <trkpt lat="59.9531546" lon="17.7159003">
        <ele>29.4575</ele>
        <time>2012-09-03T20:08:42Z</time>
      </trkpt>
      <trkpt lat="59.9530887" lon="17.7160655">
        <ele>37.6287</ele>
        <time>2012-09-03T20:08:48Z</time>
      </trkpt>
      <trkpt lat="59.9530277" lon="17.7162867">
        <ele>42.916</ele>
        <time>2012-09-03T20:08:55Z</time>
      </trkpt>
      <trkpt lat="59.953006" lon="17.7163837">
        <ele>41.9547</ele>
        <time>2012-09-03T20:08:59Z</time>
      </trkpt>
      <trkpt lat="59.9529921" lon="17.716511">
        <ele>41.9547</ele>
        <time>2012-09-03T20:09:04Z</time>
      </trkpt>
      <trkpt lat="59.9530061" lon="17.7167174">
        <ele>40.0321</ele>
        <time>2012-09-03T20:09:11Z</time>
      </trkpt>
      <trkpt lat="59.9529874" lon="17.71686">
        <ele>41.9547</ele>
        <time>2012-09-03T20:09:16Z</time>
      </trkpt>
      <trkpt lat="59.9529713" lon="17.7170487">
        <ele>43.8773</ele>
        <time>2012-09-03T20:09:22Z</time>
      </trkpt>
      <trkpt lat="59.9529414" lon="17.7171492">
        <ele>43.8773</ele>
        <time>2012-09-03T20:09:25Z</time>
      </trkpt>
      <trkpt lat="59.9529227" lon="17.7172492">
        <ele>41.9547</ele>
        <time>2012-09-03T20:09:29Z</time>
      </trkpt>
      <trkpt lat="59.9528678" lon="17.7174776">
        <ele>42.916</ele>
        <time>2012-09-03T20:09:37Z</time>
      </trkpt>
      <trkpt lat="59.9528445" lon="17.7175766">
        <ele>41.9547</ele>
        <time>2012-09-03T20:09:40Z</time>
      </trkpt>
      <trkpt lat="59.9528263" lon="17.7176397">
        <ele>41.474</ele>
        <time>2012-09-03T20:09:44Z</time>
      </trkpt>
      <trkpt lat="59.9528019" lon="17.7177368">
        <ele>40.5128</ele>
        <time>2012-09-03T20:09:48Z</time>
      </trkpt>
      <trkpt lat="59.9527661" lon="17.7178769">
        <ele>41.474</ele>
        <time>2012-09-03T20:09:53Z</time>
      </trkpt>
      <trkpt lat="59.9527533" lon="17.7179246">
        <ele>41.474</ele>
        <time>2012-09-03T20:09:55Z</time>
      </trkpt>
      <trkpt lat="59.9526631" lon="17.7181255">
        <ele>37.1481</ele>
        <time>2012-09-03T20:10:03Z</time>
      </trkpt>
      <trkpt lat="59.9526548" lon="17.7181473">
        <ele>36.6675</ele>
        <time>2012-09-03T20:10:04Z</time>
      </trkpt>
      <trkpt lat="59.9526112" lon="17.7183584">
        <ele>40.0321</ele>
        <time>2012-09-03T20:10:12Z</time>
      </trkpt>
      <trkpt lat="59.9525959" lon="17.7185034">
        <ele>40.0321</ele>
        <time>2012-09-03T20:10:17Z</time>
      </trkpt>
      <trkpt lat="59.952573" lon="17.7186459">
        <ele>40.9934</ele>
        <time>2012-09-03T20:10:22Z</time>
      </trkpt>
      <trkpt lat="59.9525625" lon="17.7186764">
        <ele>40.9934</ele>
        <time>2012-09-03T20:10:23Z</time>
      </trkpt>
      <trkpt lat="59.9525367" lon="17.7187862">
        <ele>41.9547</ele>
        <time>2012-09-03T20:10:27Z</time>
      </trkpt>
      <trkpt lat="59.9525322" lon="17.7188375">
        <ele>41.9547</ele>
        <time>2012-09-03T20:10:29Z</time>
      </trkpt>
      <trkpt lat="59.9524795" lon="17.7189919">
        <ele>44.358</ele>
        <time>2012-09-03T20:10:35Z</time>
      </trkpt>
      <trkpt lat="59.9524461" lon="17.7191078">
        <ele>44.358</ele>
        <time>2012-09-03T20:10:40Z</time>
      </trkpt>
      <trkpt lat="59.9524289" lon="17.7192615">
        <ele>43.8773</ele>
        <time>2012-09-03T20:10:46Z</time>
      </trkpt>
      <trkpt lat="59.9524144" lon="17.7193908">
        <ele>47.2418</ele>
        <time>2012-09-03T20:10:52Z</time>
      </trkpt>
      <trkpt lat="59.9524268" lon="17.7195659">
        <ele>49.1646</ele>
        <time>2012-09-03T20:10:58Z</time>
      </trkpt>
      <trkpt lat="59.952454" lon="17.7196905">
        <ele>49.1646</ele>
        <time>2012-09-03T20:11:03Z</time>
      </trkpt>
      <trkpt lat="59.9524946" lon="17.7198216">
        <ele>49.1646</ele>
        <time>2012-09-03T20:11:08Z</time>
      </trkpt>
      <trkpt lat="59.9525196" lon="17.7199823">
        <ele>49.1646</ele>
        <time>2012-09-03T20:11:14Z</time>
      </trkpt>
      <trkpt lat="59.9525234" lon="17.720005">
        <ele>49.6453</ele>
        <time>2012-09-03T20:11:15Z</time>
      </trkpt>
      <trkpt lat="59.952564" lon="17.7201642">
        <ele>48.684</ele>
        <time>2012-09-03T20:11:21Z</time>
      </trkpt>
      <trkpt lat="59.952563" lon="17.7203216">
        <ele>49.1646</ele>
        <time>2012-09-03T20:11:26Z</time>
      </trkpt>
      <trkpt lat="59.9525543" lon="17.7205308">
        <ele>48.2034</ele>
        <time>2012-09-03T20:11:33Z</time>
      </trkpt>
      <trkpt lat="59.9525532" lon="17.7206209">
        <ele>48.2034</ele>
        <time>2012-09-03T20:11:36Z</time>
      </trkpt>
      <trkpt lat="59.9525484" lon="17.7208017">
        <ele>50.126</ele>
        <time>2012-09-03T20:11:42Z</time>
      </trkpt>
      <trkpt lat="59.9525492" lon="17.7208841">
        <ele>48.684</ele>
        <time>2012-09-03T20:11:45Z</time>
      </trkpt>
      <trkpt lat="59.9525445" lon="17.7210007">
        <ele>48.684</ele>
        <time>2012-09-03T20:11:49Z</time>
      </trkpt>
      <trkpt lat="59.9525526" lon="17.7212096">
        <ele>46.7612</ele>
        <time>2012-09-03T20:11:56Z</time>
      </trkpt>
      <trkpt lat="59.9525531" lon="17.7212369">
        <ele>45.7999</ele>
        <time>2012-09-03T20:11:57Z</time>
      </trkpt>
      <trkpt lat="59.952544" lon="17.7213735">
        <ele>41.474</ele>
        <time>2012-09-03T20:12:03Z</time>
      </trkpt>
      <trkpt lat="59.9525407" lon="17.7215353">
        <ele>40.0321</ele>
        <time>2012-09-03T20:12:08Z</time>
      </trkpt>
      <trkpt lat="59.9525663" lon="17.7216695">
        <ele>38.5901</ele>
        <time>2012-09-03T20:12:13Z</time>
      </trkpt>
      <trkpt lat="59.9525747" lon="17.7217715">
        <ele>38.1094</ele>
        <time>2012-09-03T20:12:16Z</time>
      </trkpt>
      <trkpt lat="59.952572" lon="17.7219985">
        <ele>40.9934</ele>
        <time>2012-09-03T20:12:23Z</time>
      </trkpt>
      <trkpt lat="59.9525661" lon="17.7220299">
        <ele>41.474</ele>
        <time>2012-09-03T20:12:24Z</time>
      </trkpt>
      <trkpt lat="59.9525547" lon="17.7222222">
        <ele>38.1094</ele>
        <time>2012-09-03T20:12:30Z</time>
      </trkpt>
      <trkpt lat="59.9525518" lon="17.722396">
        <ele>36.1868</ele>
        <time>2012-09-03T20:12:35Z</time>
      </trkpt>
      <trkpt lat="59.9525244" lon="17.7225314">
        <ele>32.8223</ele>
        <time>2012-09-03T20:12:40Z</time>
      </trkpt>
      <trkpt lat="59.952487" lon="17.7226039">
        <ele>30.8995</ele>
        <time>2012-09-03T20:12:43Z</time>
      </trkpt>
      <trkpt lat="59.9524594" lon="17.7227687">
        <ele>33.7834</ele>
        <time>2012-09-03T20:12:49Z</time>
      </trkpt>
      <trkpt lat="59.9524653" lon="17.722926">
        <ele>39.5513</ele>
        <time>2012-09-03T20:12:54Z</time>
      </trkpt>
      <trkpt lat="59.9524703" lon="17.7229912">
        <ele>40.9934</ele>
        <time>2012-09-03T20:12:56Z</time>
      </trkpt>
      <trkpt lat="59.9525155" lon="17.7231705">
        <ele>44.358</ele>
        <time>2012-09-03T20:13:03Z</time>
      </trkpt>
      <trkpt lat="59.9525474" lon="17.7233214">
        <ele>44.358</ele>
        <time>2012-09-03T20:13:09Z</time>
      </trkpt>
      <trkpt lat="59.9526033" lon="17.7234321">
        <ele>44.358</ele>
        <time>2012-09-03T20:13:14Z</time>
      </trkpt>
      <trkpt lat="59.9526574" lon="17.7235486">
        <ele>43.3966</ele>
        <time>2012-09-03T20:13:18Z</time>
      </trkpt>
      <trkpt lat="59.9527139" lon="17.7237253">
        <ele>42.4354</ele>
        <time>2012-09-03T20:13:24Z</time>
      </trkpt>
      <trkpt lat="59.9527236" lon="17.7237783">
        <ele>42.916</ele>
        <time>2012-09-03T20:13:26Z</time>
      </trkpt>
      <trkpt lat="59.9527306" lon="17.7238342">
        <ele>43.3966</ele>
        <time>2012-09-03T20:13:28Z</time>
      </trkpt>
      <trkpt lat="59.952735" lon="17.7239233">
        <ele>44.358</ele>
        <time>2012-09-03T20:13:31Z</time>
      </trkpt>
      <trkpt lat="59.9527077" lon="17.7240878">
        <ele>45.3192</ele>
        <time>2012-09-03T20:13:37Z</time>
      </trkpt>
      <trkpt lat="59.9526797" lon="17.7241801">
        <ele>44.8386</ele>
        <time>2012-09-03T20:13:40Z</time>
      </trkpt>
      <trkpt lat="59.9526681" lon="17.7242288">
        <ele>45.3192</ele>
        <time>2012-09-03T20:13:42Z</time>
      </trkpt>
      <trkpt lat="59.9526534" lon="17.7242792">
        <ele>44.8386</ele>
        <time>2012-09-03T20:13:44Z</time>
      </trkpt>
      <trkpt lat="59.9526336" lon="17.7243408">
        <ele>44.358</ele>
        <time>2012-09-03T20:13:47Z</time>
      </trkpt>
      <trkpt lat="59.9525569" lon="17.7244986">
        <ele>44.358</ele>
        <time>2012-09-03T20:13:53Z</time>
      </trkpt>
      <trkpt lat="59.9525129" lon="17.7246049">
        <ele>44.358</ele>
        <time>2012-09-03T20:13:57Z</time>
      </trkpt>
      <trkpt lat="59.9525003" lon="17.7246217">
        <ele>44.358</ele>
        <time>2012-09-03T20:13:58Z</time>
      </trkpt>
      <trkpt lat="59.952461" lon="17.7246743">
        <ele>42.916</ele>
        <time>2012-09-03T20:14:01Z</time>
      </trkpt>
      <trkpt lat="59.9524295" lon="17.7247442">
        <ele>42.916</ele>
        <time>2012-09-03T20:14:04Z</time>
      </trkpt>
      <trkpt lat="59.9523864" lon="17.7247925">
        <ele>41.474</ele>
        <time>2012-09-03T20:14:07Z</time>
      </trkpt>
      <trkpt lat="59.9523425" lon="17.7248926">
        <ele>42.4354</ele>
        <time>2012-09-03T20:14:13Z</time>
      </trkpt>
      <trkpt lat="59.9523343" lon="17.7249193">
        <ele>41.9547</ele>
        <time>2012-09-03T20:14:14Z</time>
      </trkpt>
      <trkpt lat="59.9522814" lon="17.7250541">
        <ele>40.0321</ele>
        <time>2012-09-03T20:14:20Z</time>
      </trkpt>
      <trkpt lat="59.9522415" lon="17.7251179">
        <ele>39.0707</ele>
        <time>2012-09-03T20:14:23Z</time>
      </trkpt>
      <trkpt lat="59.9521777" lon="17.7252288">
        <ele>38.5901</ele>
        <time>2012-09-03T20:14:29Z</time>
      </trkpt>
      <trkpt lat="59.9521275" lon="17.7253397">
        <ele>38.5901</ele>
        <time>2012-09-03T20:14:34Z</time>
      </trkpt>
      <trkpt lat="59.952067" lon="17.7254989">
        <ele>38.5901</ele>
        <time>2012-09-03T20:14:41Z</time>
      </trkpt>
      <trkpt lat="59.9520574" lon="17.7255192">
        <ele>38.5901</ele>
        <time>2012-09-03T20:14:42Z</time>
      </trkpt>
      <trkpt lat="59.9520539" lon="17.7255342">
        <ele>38.5901</ele>
        <time>2012-09-03T20:14:43Z</time>
      </trkpt>
      <trkpt lat="59.9520493" lon="17.725537">
        <ele>39.0707</ele>
        <time>2012-09-03T20:14:45Z</time>
      </trkpt>
    </trkseg>
  </trk>
</gpx>